Time;durP1;ratioP1;P1;durP2;ratioP2;P2;SDS_P1;SDS_P2;PMS_P1;PMS_P2;Temp;Humidity;BMP_temperature;BMP_pressure;BME280_temperature;BME280_humidity;BME280_pressure;Samples;Min_cycle;Max_cycle;Signal;HPM_P1;HPM_P2
2022/06/27 00:01:34;;;;;;;5.63;4.00;;;;;;;;;;5011140;28;20378;-74
2022/06/27 00:04:00;;;;;;;7.35;4.40;;;;;;;;;;5009638;28;20676;-73
2022/06/27 00:06:25;;;;;;;5.63;3.85;;;;;;;;;;5010229;28;20269;-73
2022/06/27 00:08:50;;;;;;;6.25;4.60;;;;;;;;;;5010356;28;20201;-74
2022/06/27 00:11:18;;;;;;;7.60;4.45;;;;;;;;;;5009918;28;20179;-74
2022/06/27 00:13:45;;;;;;;5.85;4.30;;;;;;;;;;5002584;28;20556;-73
2022/06/27 00:16:10;;;;;;;8.05;4.82;;;;;;;;;;5013235;28;20179;-74
2022/06/27 00:18:36;;;;;;;6.30;5.15;;;;;;;;;;5002946;28;20186;-73
2022/06/27 00:21:01;;;;;;;9.38;5.57;;;;;;;;;;5000768;28;20207;-73
2022/06/27 00:23:26;;;;;;;6.95;5.30;;;;;;;;;;5000079;28;20684;-73
2022/06/27 00:25:52;;;;;;;8.15;5.03;;;;;;;;;;5004382;28;20642;-73
2022/06/27 00:28:17;;;;;;;7.57;5.40;;;;;;;;;;4984109;28;20176;-72
2022/06/27 00:30:42;;;;;;;8.18;5.18;;;;;;;;;;5010962;28;20696;-72
2022/06/27 00:33:08;;;;;;;7.88;5.15;;;;;;;;;;5010747;28;20195;-72
2022/06/27 00:35:33;;;;;;;6.70;5.10;;;;;;;;;;5010198;28;20187;-72
2022/06/27 00:37:58;;;;;;;9.13;5.80;;;;;;;;;;5009877;28;20495;-72
2022/06/27 00:40:23;;;;;;;8.15;5.45;;;;;;;;;;5009628;28;20190;-72
2022/06/27 00:42:49;;;;;;;8.15;5.88;;;;;;;;;;5010555;28;20219;-72
2022/06/27 00:45:14;;;;;;;7.63;5.85;;;;;;;;;;5012789;28;20265;-74
2022/06/27 00:47:39;;;;;;;5.60;4.93;;;;;;;;;;4995890;28;20171;-74
2022/06/27 00:50:05;;;;;;;8.73;5.15;;;;;;;;;;5010628;28;20203;-74
2022/06/27 00:52:31;;;;;;;7.70;6.43;;;;;;;;;;5011226;28;20234;-74
2022/06/27 00:54:56;;;;;;;7.32;5.93;;;;;;;;;;5007111;28;20211;-73
2022/06/27 00:57:21;;;;;;;9.63;6.28;;;;;;;;;;5008589;28;20228;-73
2022/06/27 00:59:46;;;;;;;8.73;5.95;;;;;;;;;;5004010;28;20179;-72
2022/06/27 01:02:12;;;;;;;7.07;6.35;;;;;;;;;;5010685;28;20185;-72
2022/06/27 01:04:38;;;;;;;8.23;5.93;;;;;;;;;;5006951;28;20215;-73
2022/06/27 01:07:05;;;;;;;8.95;6.25;;;;;;;;;;5009374;28;20178;-73
2022/06/27 01:09:30;;;;;;;9.27;6.50;;;;;;;;;;5005956;28;20551;-73
2022/06/27 01:11:55;;;;;;;6.75;6.05;;;;;;;;;;5002419;28;20183;-73
2022/06/27 01:14:21;;;;;;;8.90;5.90;;;;;;;;;;5006383;28;20182;-73
2022/06/27 01:16:46;;;;;;;8.30;6.15;;;;;;;;;;5007774;28;20603;-73
2022/06/27 01:19:13;;;;;;;7.68;5.70;;;;;;;;;;5005241;28;20187;-73
2022/06/27 01:21:40;;;;;;;8.10;6.00;;;;;;;;;;5009760;28;20191;-72
2022/06/27 01:24:05;;;;;;;8.50;6.18;;;;;;;;;;5007279;28;20223;-72
2022/06/27 01:26:31;;;;;;;8.52;6.47;;;;;;;;;;5000909;28;20265;-73
2022/06/27 01:28:56;;;;;;;7.65;5.93;;;;;;;;;;4998655;28;20243;-73
2022/06/27 01:31:22;;;;;;;8.40;6.55;;;;;;;;;;5001196;28;20177;-73
2022/06/27 01:33:47;;;;;;;10.45;6.32;;;;;;;;;;5008313;28;20241;-73
2022/06/27 01:38:57;;;;;;;9.73;7.03;;;;;;;;;;5007428;28;20218;-72
2022/06/27 01:41:22;;;;;;;8.70;7.72;;;;;;;;;;5009695;28;20203;-73
2022/06/27 01:43:48;;;;;;;13.63;7.82;;;;;;;;;;5009881;28;20245;-73
2022/06/27 01:46:13;;;;;;;9.77;7.95;;;;;;;;;;5010628;28;20237;-72
2022/06/27 01:48:39;;;;;;;8.88;8.02;;;;;;;;;;5008811;28;20178;-74
2022/06/27 01:51:04;;;;;;;9.55;7.88;;;;;;;;;;5010604;28;20175;-74
2022/06/27 01:53:29;;;;;;;10.18;7.45;;;;;;;;;;4997915;28;20210;-73
2022/06/27 01:55:55;;;;;;;8.30;7.50;;;;;;;;;;5008040;28;20614;-72
2022/06/27 01:58:20;;;;;;;10.38;7.50;;;;;;;;;;5006762;28;20186;-71
2022/06/27 02:00:45;;;;;;;8.15;7.35;;;;;;;;;;5008589;28;20191;-72
2022/06/27 02:03:11;;;;;;;9.95;8.48;;;;;;;;;;5007081;28;20230;-72
2022/06/27 02:05:36;;;;;;;8.88;7.95;;;;;;;;;;5005496;28;20727;-73
2022/06/27 02:08:02;;;;;;;10.55;8.73;;;;;;;;;;5008475;28;20175;-73
2022/06/27 02:10:28;;;;;;;9.23;8.30;;;;;;;;;;5006017;28;20182;-72
2022/06/27 02:12:53;;;;;;;7.72;6.95;;;;;;;;;;5006616;28;20245;-71
2022/06/27 02:15:18;;;;;;;8.52;7.25;;;;;;;;;;5008903;28;20602;-71
2022/06/27 02:17:43;;;;;;;10.27;8.40;;;;;;;;;;5008280;28;20172;-71
2022/06/27 02:20:09;;;;;;;9.00;7.75;;;;;;;;;;5010164;28;20248;-71
2022/06/27 02:22:34;;;;;;;10.30;8.70;;;;;;;;;;5004986;28;20286;-72
2022/06/27 02:24:59;;;;;;;11.20;8.07;;;;;;;;;;5006866;28;20417;-71
2022/06/27 02:27:25;;;;;;;11.45;8.88;;;;;;;;;;5010354;28;20224;-73
2022/06/27 02:29:50;;;;;;;9.05;8.02;;;;;;;;;;5009855;28;20183;-72
2022/06/27 02:32:16;;;;;;;8.52;7.47;;;;;;;;;;4998790;28;20211;-73
2022/06/27 02:34:41;;;;;;;10.57;8.27;;;;;;;;;;5005552;28;20178;-71
2022/06/27 02:37:07;;;;;;;10.73;7.35;;;;;;;;;;5012759;28;20623;-71
2022/06/27 02:39:35;;;;;;;10.18;8.45;;;;;;;;;;5006855;28;20178;-74
2022/06/27 02:42:01;;;;;;;11.68;9.48;;;;;;;;;;5012436;28;20170;-73
2022/06/27 02:44:26;;;;;;;8.52;7.53;;;;;;;;;;4995556;28;20550;-73
2022/06/27 02:46:52;;;;;;;10.32;8.43;;;;;;;;;;4987288;28;20271;-73
2022/06/27 02:49:18;;;;;;;11.95;9.00;;;;;;;;;;5010844;28;20250;-72
2022/06/27 02:51:56;;;;;;;11.77;9.32;;;;;;;;;;5014849;28;20566;-74
2022/06/27 02:54:26;;;;;;;11.50;8.18;;;;;;;;;;4992049;28;20278;-72
2022/06/27 02:56:55;;;;;;;9.80;8.02;;;;;;;;;;5014571;28;20230;-72
2022/06/27 02:59:23;;;;;;;11.80;8.38;;;;;;;;;;5011047;28;20631;-72
2022/06/27 03:01:49;;;;;;;12.57;9.23;;;;;;;;;;5010577;28;20171;-72
2022/06/27 03:04:14;;;;;;;11.68;8.75;;;;;;;;;;4984799;28;20696;-73
2022/06/27 03:06:39;;;;;;;9.57;8.45;;;;;;;;;;5011955;28;20225;-72
2022/06/27 03:09:05;;;;;;;9.55;8.60;;;;;;;;;;5006929;28;20192;-72
2022/06/27 03:11:31;;;;;;;10.57;9.40;;;;;;;;;;5012784;28;20171;-72
2022/06/27 03:13:56;;;;;;;11.05;8.40;;;;;;;;;;5011560;28;20265;-72
2022/06/27 03:16:22;;;;;;;12.55;9.50;;;;;;;;;;5000288;28;20696;-72
2022/06/27 03:18:48;;;;;;;10.35;8.98;;;;;;;;;;5009170;28;20175;-72
2022/06/27 03:21:13;;;;;;;10.75;9.27;;;;;;;;;;5012495;28;20282;-71
2022/06/27 03:23:39;;;;;;;13.25;9.32;;;;;;;;;;4997436;28;20199;-72
2022/06/27 03:26:05;;;;;;;11.90;9.10;;;;;;;;;;4995290;28;20217;-72
2022/06/27 03:28:30;;;;;;;9.93;8.30;;;;;;;;;;5001012;28;20225;-72
2022/06/27 03:30:55;;;;;;;10.40;8.32;;;;;;;;;;5011677;28;20187;-72
2022/06/27 03:33:20;;;;;;;9.15;7.75;;;;;;;;;;5011713;28;20191;-72
2022/06/27 03:35:45;;;;;;;10.10;9.05;;;;;;;;;;5010665;28;20192;-72
2022/06/27 03:38:12;;;;;;;10.85;9.18;;;;;;;;;;5007849;28;20195;-71
2022/06/27 03:40:37;;;;;;;12.80;10.98;;;;;;;;;;5002297;28;20242;-72
2022/06/27 03:43:02;;;;;;;11.57;8.63;;;;;;;;;;5009442;28;20195;-72
2022/06/27 03:45:27;;;;;;;10.63;9.52;;;;;;;;;;5011257;28;20199;-72
2022/06/27 03:47:54;;;;;;;10.77;9.63;;;;;;;;;;5011054;28;20317;-72
2022/06/27 03:50:20;;;;;;;12.70;10.57;;;;;;;;;;5005425;28;20249;-72
2022/06/27 03:52:45;;;;;;;11.88;9.30;;;;;;;;;;5009283;28;20247;-72
2022/06/27 03:55:11;;;;;;;10.75;8.98;;;;;;;;;;5003070;28;20189;-73
2022/06/27 03:57:37;;;;;;;12.30;10.05;;;;;;;;;;5008904;28;20242;-73
2022/06/27 04:00:03;;;;;;;10.55;9.13;;;;;;;;;;5010648;28;20626;-72
2022/06/27 04:02:29;;;;;;;9.65;8.63;;;;;;;;;;5010760;28;20207;-72
2022/06/27 04:04:54;;;;;;;18.58;10.35;;;;;;;;;;5009456;28;20215;-73
2022/06/27 04:07:19;;;;;;;10.48;9.07;;;;;;;;;;5009172;28;20210;-72
2022/06/27 04:09:44;;;;;;;10.85;9.05;;;;;;;;;;5007470;28;20560;-72
2022/06/27 04:12:10;;;;;;;9.77;8.77;;;;;;;;;;5003328;28;20685;-72
2022/06/27 04:14:36;;;;;;;12.32;10.07;;;;;;;;;;5011095;28;21132;-72
2022/06/27 04:17:01;;;;;;;12.02;10.88;;;;;;;;;;5012423;28;20258;-72
2022/06/27 04:19:26;;;;;;;11.80;9.93;;;;;;;;;;5014531;28;20183;-72
2022/06/27 04:21:51;;;;;;;12.90;11.35;;;;;;;;;;5010497;28;20183;-72
2022/06/27 04:24:17;;;;;;;12.63;11.32;;;;;;;;;;5007968;28;20195;-72
2022/06/27 04:26:42;;;;;;;13.65;10.05;;;;;;;;;;4991894;28;20603;-73
2022/06/27 04:29:07;;;;;;;12.88;10.38;;;;;;;;;;4983893;28;20179;-73
2022/06/27 04:31:33;;;;;;;14.18;10.90;;;;;;;;;;5010689;28;20250;-73
2022/06/27 04:33:58;;;;;;;12.45;9.98;;;;;;;;;;5012787;28;20206;-73
2022/06/27 04:36:23;;;;;;;10.65;9.45;;;;;;;;;;4995016;28;20179;-73
2022/06/27 04:38:48;;;;;;;11.90;8.23;;;;;;;;;;5008077;28;20225;-73
2022/06/27 04:41:14;;;;;;;13.15;9.93;;;;;;;;;;5012725;28;20191;-72
2022/06/27 04:43:39;;;;;;;17.25;10.93;;;;;;;;;;4996576;28;20217;-71
2022/06/27 04:46:05;;;;;;;13.20;10.32;;;;;;;;;;5004621;28;20195;-71
2022/06/27 04:48:32;;;;;;;11.75;10.20;;;;;;;;;;5004529;28;20241;-71
2022/06/27 04:50:59;;;;;;;10.50;9.32;;;;;;;;;;5010412;28;20174;-71
2022/06/27 04:53:24;;;;;;;15.48;11.05;;;;;;;;;;5009215;28;20260;-71
2022/06/27 04:55:50;;;;;;;13.75;10.70;;;;;;;;;;4992078;28;20221;-71
2022/06/27 04:58:15;;;;;;;13.88;11.57;;;;;;;;;;5008675;28;20310;-71
2022/06/27 05:00:40;;;;;;;14.85;10.93;;;;;;;;;;5010495;28;20209;-71
2022/06/27 05:03:06;;;;;;;11.23;10.00;;;;;;;;;;4997597;28;20206;-71
2022/06/27 05:05:31;;;;;;;13.15;10.23;;;;;;;;;;5002243;28;20199;-71
2022/06/27 05:07:57;;;;;;;11.23;9.63;;;;;;;;;;5002480;28;20187;-71
2022/06/27 05:10:22;;;;;;;11.80;10.50;;;;;;;;;;4999971;28;20174;-71
2022/06/27 05:12:47;;;;;;;12.63;10.43;;;;;;;;;;5004563;28;20285;-71
2022/06/27 05:15:13;;;;;;;13.45;12.05;;;;;;;;;;5008064;28;20377;-71
2022/06/27 05:17:38;;;;;;;12.45;10.30;;;;;;;;;;4993751;28;20697;-71
2022/06/27 05:20:05;;;;;;;13.30;11.43;;;;;;;;;;4983280;28;20700;-71
2022/06/27 05:22:31;;;;;;;13.93;11.85;;;;;;;;;;5004249;28;20736;-71
2022/06/27 05:24:57;;;;;;;11.88;10.70;;;;;;;;;;4991804;28;20203;-71
2022/06/27 05:27:23;;;;;;;14.68;10.75;;;;;;;;;;4990848;28;20667;-71
2022/06/27 05:29:50;;;;;;;12.55;11.25;;;;;;;;;;5006585;28;20163;-71
2022/06/27 05:32:15;;;;;;;13.27;10.93;;;;;;;;;;5006612;28;20175;-70
2022/06/27 05:34:40;;;;;;;12.57;10.93;;;;;;;;;;5008849;28;20186;-70
2022/06/27 05:37:05;;;;;;;12.43;11.13;;;;;;;;;;4997205;28;20969;-71
2022/06/27 05:39:33;;;;;;;14.98;11.95;;;;;;;;;;5002793;28;20174;-71
2022/06/27 05:41:58;;;;;;;14.25;11.32;;;;;;;;;;5005788;28;20186;-71
2022/06/27 05:44:25;;;;;;;15.80;12.32;;;;;;;;;;5010850;28;20189;-71
2022/06/27 05:46:50;;;;;;;13.88;12.43;;;;;;;;;;5009575;28;20541;-71
2022/06/27 05:49:16;;;;;;;13.90;12.50;;;;;;;;;;4999934;28;20186;-72
2022/06/27 05:51:41;;;;;;;15.77;11.80;;;;;;;;;;5004198;28;20202;-72
2022/06/27 05:54:09;;;;;;;15.05;12.70;;;;;;;;;;4988055;28;20218;-72
2022/06/27 05:56:35;;;;;;;14.27;12.30;;;;;;;;;;4990730;28;20919;-72
2022/06/27 05:59:01;;;;;;;15.50;12.13;;;;;;;;;;5005727;28;20183;-72
2022/06/27 06:01:27;;;;;;;13.93;12.52;;;;;;;;;;5001993;28;20186;-72
2022/06/27 06:03:53;;;;;;;14.63;13.07;;;;;;;;;;5006166;28;20214;-71
2022/06/27 06:06:18;;;;;;;12.90;11.60;;;;;;;;;;5005663;28;20198;-72
2022/06/27 06:08:43;;;;;;;14.95;12.68;;;;;;;;;;5004823;28;20641;-72
2022/06/27 06:11:09;;;;;;;15.68;13.88;;;;;;;;;;5005279;28;20176;-71
2022/06/27 06:13:34;;;;;;;16.15;13.82;;;;;;;;;;5003186;28;20195;-72
2022/06/27 06:16:00;;;;;;;17.98;13.57;;;;;;;;;;5018265;28;20205;-72
2022/06/27 06:18:27;;;;;;;16.88;13.40;;;;;;;;;;5001489;28;20171;-71
2022/06/27 06:20:52;;;;;;;13.45;12.13;;;;;;;;;;5004163;28;20177;-71
2022/06/27 06:23:17;;;;;;;15.98;13.27;;;;;;;;;;5010785;28;20281;-71
2022/06/27 06:25:43;;;;;;;14.20;12.77;;;;;;;;;;4997727;28;20660;-71
2022/06/27 06:28:08;;;;;;;16.42;14.00;;;;;;;;;;4993173;28;20175;-71
2022/06/27 06:30:33;;;;;;;16.40;13.40;;;;;;;;;;4988814;28;20172;-71
2022/06/27 06:33:02;;;;;;;15.93;13.65;;;;;;;;;;5009710;28;20195;-71
2022/06/27 06:35:28;;;;;;;13.93;12.43;;;;;;;;;;4989741;28;20179;-71
2022/06/27 06:37:53;;;;;;;13.77;12.25;;;;;;;;;;5008184;28;20175;-71
2022/06/27 06:40:18;;;;;;;14.18;12.68;;;;;;;;;;4990790;28;20183;-71
2022/06/27 06:42:44;;;;;;;16.67;12.70;;;;;;;;;;5005130;28;20248;-71
2022/06/27 06:45:10;;;;;;;14.38;12.88;;;;;;;;;;5003234;28;20675;-72
2022/06/27 06:47:43;;;;;;;13.43;12.05;;;;;;;;;;5007942;28;20201;-71
2022/06/27 06:50:08;;;;;;;16.63;12.90;;;;;;;;;;5003747;28;20256;-71
2022/06/27 06:52:34;;;;;;;13.40;11.98;;;;;;;;;;5008711;28;20207;-72
2022/06/27 06:54:59;;;;;;;17.92;13.63;;;;;;;;;;5007766;28;20664;-73
2022/06/27 06:57:24;;;;;;;15.52;12.85;;;;;;;;;;5009987;28;20190;-73
2022/06/27 06:59:49;;;;;;;15.82;12.02;;;;;;;;;;5004027;28;20183;-73
2022/06/27 07:02:15;;;;;;;13.10;11.40;;;;;;;;;;4977404;28;20199;-73
2022/06/27 07:04:40;;;;;;;12.90;11.60;;;;;;;;;;4992411;28;20206;-73
2022/06/27 07:07:06;;;;;;;14.85;12.02;;;;;;;;;;5001825;28;20360;-73
2022/06/27 07:09:31;;;;;;;15.48;11.80;;;;;;;;;;4997879;28;20653;-73
2022/06/27 07:11:57;;;;;;;14.57;11.43;;;;;;;;;;5008846;28;20187;-73
2022/06/27 07:14:23;;;;;;;15.25;11.13;;;;;;;;;;5010450;28;20167;-73
2022/06/27 07:16:48;;;;;;;11.85;10.65;;;;;;;;;;5013487;28;20202;-73
2022/06/27 07:19:14;;;;;;;12.40;11.10;;;;;;;;;;5014009;28;20182;-74
2022/06/27 07:21:39;;;;;;;10.77;9.77;;;;;;;;;;4989182;28;20207;-73
2022/06/27 07:24:08;;;;;;;12.65;11.45;;;;;;;;;;5004653;28;20304;-73
2022/06/27 07:26:33;;;;;;;13.57;10.43;;;;;;;;;;5012734;28;20695;-73
2022/06/27 07:29:04;;;;;;;13.98;10.57;;;;;;;;;;5012311;28;20167;-73
2022/06/27 07:31:29;;;;;;;10.93;9.90;;;;;;;;;;5012738;28;20649;-73
2022/06/27 07:33:56;;;;;;;10.57;9.48;;;;;;;;;;5012543;28;20310;-73
2022/06/27 07:36:25;;;;;;;12.18;10.82;;;;;;;;;;5013968;28;20270;-73
2022/06/27 07:38:52;;;;;;;14.05;10.73;;;;;;;;;;5009202;28;20175;-73
2022/06/27 07:41:20;;;;;;;13.38;10.32;;;;;;;;;;4980658;28;20324;-73
2022/06/27 07:43:46;;;;;;;17.95;11.05;;;;;;;;;;5002150;28;20199;-73
2022/06/27 07:46:12;;;;;;;10.63;9.63;;;;;;;;;;5004735;28;20202;-73
2022/06/27 07:48:38;;;;;;;14.70;11.55;;;;;;;;;;5003320;28;20290;-73
2022/06/27 07:51:03;;;;;;;11.85;10.57;;;;;;;;;;5000515;28;20291;-73
2022/06/27 07:53:29;;;;;;;12.45;11.15;;;;;;;;;;5007457;28;20210;-73
2022/06/27 07:55:55;;;;;;;14.13;10.60;;;;;;;;;;5010701;28;20183;-74
2022/06/27 07:58:30;;;;;;;12.32;10.93;;;;;;;;;;4992418;28;20693;-73
2022/06/27 08:00:56;;;;;;;11.45;9.75;;;;;;;;;;4984898;28;20186;-73
2022/06/27 08:03:36;;;;;;;13.80;10.88;;;;;;;;;;4974870;28;20207;-73
2022/06/27 08:06:21;;;;;;;14.38;10.77;;;;;;;;;;4991566;28;20206;-73
2022/06/27 08:08:47;;;;;;;12.90;11.35;;;;;;;;;;4989955;28;20287;-73
2022/06/27 08:11:14;;;;;;;14.35;10.30;;;;;;;;;;4988934;28;20197;-73
2022/06/27 08:13:41;;;;;;;11.15;9.70;;;;;;;;;;4992146;28;20285;-73
2022/06/27 08:16:08;;;;;;;10.32;9.25;;;;;;;;;;4974846;28;20545;-73
2022/06/27 08:18:33;;;;;;;21.10;9.93;;;;;;;;;;4977327;28;20955;-72
2022/06/27 08:20:59;;;;;;;12.15;10.43;;;;;;;;;;4991176;28;20313;-73
2022/06/27 08:23:26;;;;;;;12.77;11.38;;;;;;;;;;4970793;28;20279;-73
2022/06/27 08:25:51;;;;;;;15.05;10.90;;;;;;;;;;4988614;28;20217;-72
2022/06/27 08:28:16;;;;;;;12.35;10.65;;;;;;;;;;4987751;28;20183;-73
2022/06/27 08:30:42;;;;;;;12.90;11.48;;;;;;;;;;4998712;28;20175;-73
2022/06/27 08:33:08;;;;;;;11.65;10.48;;;;;;;;;;5013076;28;20715;-73
2022/06/27 08:35:35;;;;;;;12.30;10.30;;;;;;;;;;4992718;28;20267;-73
2022/06/27 08:38:01;;;;;;;11.82;10.50;;;;;;;;;;5010757;28;20203;-73
2022/06/27 08:40:27;;;;;;;12.07;10.00;;;;;;;;;;5003900;28;20194;-73
2022/06/27 08:42:53;;;;;;;13.05;11.75;;;;;;;;;;5007361;28;20253;-73
2022/06/27 08:45:19;;;;;;;14.15;12.13;;;;;;;;;;5006064;28;20195;-73
2022/06/27 08:47:46;;;;;;;13.63;11.20;;;;;;;;;;4990356;28;20173;-73
2022/06/27 08:50:11;;;;;;;12.15;10.43;;;;;;;;;;5010889;28;20194;-73
2022/06/27 08:52:39;;;;;;;12.18;10.98;;;;;;;;;;5012009;28;20646;-73
2022/06/27 08:55:07;;;;;;;11.90;10.65;;;;;;;;;;4987648;28;20205;-73
2022/06/27 08:57:32;;;;;;;11.60;9.70;;;;;;;;;;5009219;28;20178;-73
2022/06/27 08:59:59;;;;;;;11.95;10.80;;;;;;;;;;5005704;28;20270;-73
2022/06/27 09:02:26;;;;;;;11.82;9.75;;;;;;;;;;4988740;28;20209;-73
2022/06/27 09:05:02;;;;;;;15.48;11.15;;;;;;;;;;4971590;28;20943;-73
2022/06/27 09:07:48;;;;;;;14.25;10.65;;;;;;;;;;4987449;28;20301;-73
2022/06/27 09:10:29;;;;;;;11.02;9.88;;;;;;;;;;4992753;28;20175;-73
2022/06/27 09:12:55;;;;;;;13.43;11.07;;;;;;;;;;4987394;28;20207;-73
2022/06/27 09:15:21;;;;;;;15.43;11.55;;;;;;;;;;4989207;28;20187;-73
2022/06/27 09:17:58;;;;;;;11.95;10.57;;;;;;;;;;4988363;28;20183;-73
2022/06/27 09:20:24;;;;;;;13.40;10.05;;;;;;;;;;4989671;28;20531;-73
2022/06/27 09:22:50;;;;;;;13.40;9.25;;;;;;;;;;4988905;28;20270;-73
2022/06/27 09:25:20;;;;;;;11.32;10.23;;;;;;;;;;4988556;28;20210;-73
2022/06/27 09:27:50;;;;;;;10.88;9.77;;;;;;;;;;4987657;28;20190;-73
2022/06/27 09:30:18;;;;;;;11.63;10.43;;;;;;;;;;4987617;28;20515;-73
2022/06/27 09:32:43;;;;;;;11.65;10.50;;;;;;;;;;4993754;28;20205;-73
2022/06/27 09:35:21;;;;;;;11.95;10.63;;;;;;;;;;4988280;28;20179;-73
2022/06/27 09:37:56;;;;;;;10.40;9.38;;;;;;;;;;4985572;28;20183;-73
2022/06/27 09:40:24;;;;;;;12.77;9.35;;;;;;;;;;4982454;28;20180;-73
2022/06/27 09:42:51;;;;;;;12.02;10.68;;;;;;;;;;4969489;28;20310;-73
2022/06/27 09:45:17;;;;;;;11.57;10.15;;;;;;;;;;4990993;28;20338;-73
2022/06/27 09:47:43;;;;;;;12.85;10.05;;;;;;;;;;4988465;28;20179;-73
2022/06/27 09:50:09;;;;;;;12.93;10.38;;;;;;;;;;4988005;28;20195;-72
2022/06/27 09:52:35;;;;;;;11.57;10.30;;;;;;;;;;4986175;28;20199;-72
2022/06/27 09:55:02;;;;;;;11.57;10.13;;;;;;;;;;4988652;28;20842;-73
2022/06/27 09:57:27;;;;;;;12.40;11.10;;;;;;;;;;4987435;28;20183;-73
2022/06/27 09:59:53;;;;;;;10.60;9.25;;;;;;;;;;4985503;28;20197;-73
2022/06/27 10:02:21;;;;;;;13.90;10.52;;;;;;;;;;4987461;28;20898;-73
2022/06/27 10:04:47;;;;;;;11.23;9.88;;;;;;;;;;4989745;28;20183;-73
2022/06/27 10:07:13;;;;;;;12.32;10.65;;;;;;;;;;4987849;28;20195;-73
2022/06/27 10:09:40;;;;;;;10.77;9.77;;;;;;;;;;4985701;28;20222;-73
2022/06/27 10:12:24;;;;;;;14.02;9.80;;;;;;;;;;4986157;28;20178;-73
2022/06/27 10:15:07;;;;;;;14.75;10.68;;;;;;;;;;4990202;28;20194;-73
2022/06/27 10:17:35;;;;;;;19.23;12.65;;;;;;;;;;4985599;28;20195;-73
2022/06/27 10:20:01;;;;;;;12.90;11.48;;;;;;;;;;4987438;28;20190;-73
2022/06/27 10:22:27;;;;;;;15.02;12.10;;;;;;;;;;4985333;28;20286;-73
2022/06/27 10:24:52;;;;;;;12.27;10.23;;;;;;;;;;4967440;28;20263;-73
2022/06/27 10:27:30;;;;;;;14.55;11.13;;;;;;;;;;4986818;28;20193;-73
2022/06/27 10:29:55;;;;;;;12.57;10.80;;;;;;;;;;4988160;28;20182;-73
2022/06/27 10:32:41;;;;;;;12.95;11.52;;;;;;;;;;5006174;28;20245;-73
2022/06/27 10:35:08;;;;;;;18.48;11.73;;;;;;;;;;5006408;28;20179;-73
2022/06/27 10:37:37;;;;;;;12.88;10.88;;;;;;;;;;5007903;28;20221;-73
2022/06/27 10:40:20;;;;;;;14.05;10.43;;;;;;;;;;5007845;28;20274;-73
2022/06/27 10:42:49;;;;;;;12.30;10.98;;;;;;;;;;5009688;28;20202;-73
2022/06/27 10:45:21;;;;;;;12.23;11.02;;;;;;;;;;5013763;28;20222;-73
2022/06/27 10:47:46;;;;;;;13.25;11.05;;;;;;;;;;4982092;28;20799;-73
2022/06/27 10:50:12;;;;;;;11.77;10.45;;;;;;;;;;4986383;28;20278;-73
2022/06/27 10:52:37;;;;;;;11.68;10.57;;;;;;;;;;5010060;28;20214;-73
2022/06/27 10:55:19;;;;;;;14.13;10.17;;;;;;;;;;5012819;28;20203;-73
2022/06/27 10:57:44;;;;;;;13.10;11.73;;;;;;;;;;5009339;28;20439;-73
2022/06/27 11:00:10;;;;;;;12.23;10.88;;;;;;;;;;5014266;28;20252;-73
2022/06/27 11:02:36;;;;;;;13.98;10.60;;;;;;;;;;5014980;28;20692;-73
2022/06/27 11:05:02;;;;;;;13.48;10.48;;;;;;;;;;4997187;28;20231;-73
2022/06/27 11:07:28;;;;;;;14.57;11.50;;;;;;;;;;4989822;28;20491;-73
2022/06/27 11:09:53;;;;;;;12.95;11.35;;;;;;;;;;4989921;28;20185;-73
2022/06/27 11:12:19;;;;;;;18.23;13.73;;;;;;;;;;4974670;28;20286;-73
2022/06/27 11:14:47;;;;;;;13.18;11.82;;;;;;;;;;4995727;28;20668;-73
2022/06/27 11:17:31;;;;;;;12.70;10.75;;;;;;;;;;4988843;28;20246;-73
2022/06/27 11:20:12;;;;;;;11.45;9.75;;;;;;;;;;4988522;28;20175;-73
2022/06/27 11:22:38;;;;;;;14.05;11.32;;;;;;;;;;4988539;28;20234;-73
2022/06/27 11:25:03;;;;;;;13.45;11.55;;;;;;;;;;4988950;28;20289;-73
2022/06/27 11:27:44;;;;;;;14.52;11.68;;;;;;;;;;4992069;28;20270;-73
2022/06/27 11:32:54;;;;;;;16.25;12.07;;;;;;;;;;4989391;28;20202;-73
2022/06/27 11:35:19;;;;;;;14.90;12.88;;;;;;;;;;4989345;28;20196;-73
2022/06/27 11:37:44;;;;;;;16.95;12.90;;;;;;;;;;4987869;28;20180;-73
2022/06/27 11:40:09;;;;;;;14.57;10.52;;;;;;;;;;4989266;28;20191;-73
2022/06/27 11:42:35;;;;;;;13.23;10.80;;;;;;;;;;4972525;28;20206;-73
2022/06/27 11:45:02;;;;;;;12.98;10.05;;;;;;;;;;4994068;28;20699;-73
2022/06/27 11:47:28;;;;;;;11.32;8.32;;;;;;;;;;4989165;28;20179;-73
2022/06/27 11:50:07;;;;;;;12.18;8.32;;;;;;;;;;4993597;28;20187;-73
2022/06/27 11:52:52;;;;;;;9.93;8.27;;;;;;;;;;4990627;28;21796;-72
2022/06/27 11:55:21;;;;;;;10.23;8.20;;;;;;;;;;4991959;28;20828;-72
2022/06/27 11:57:56;;;;;;;10.35;9.40;;;;;;;;;;5000269;28;20680;-73
2022/06/27 12:00:22;;;;;;;11.88;10.65;;;;;;;;;;4971419;28;20186;-72
2022/06/27 12:03:07;;;;;;;12.88;10.73;;;;;;;;;;4988671;28;20207;-72
2022/06/27 12:05:33;;;;;;;14.40;11.63;;;;;;;;;;4997169;28;20718;-72
2022/06/27 12:07:58;;;;;;;13.32;11.93;;;;;;;;;;4972269;28;20183;-71
2022/06/27 12:13:40;;;;;;;13.07;10.25;;;;;;;;;;4981740;28;20246;-72
2022/06/27 12:16:07;;;;;;;11.07;9.57;;;;;;;;;;4993138;28;20191;-71
2022/06/27 12:18:33;;;;;;;12.48;10.52;;;;;;;;;;4992171;28;20183;-71
2022/06/27 12:20:58;;;;;;;12.80;9.63;;;;;;;;;;4990349;28;20683;-71
2022/06/27 12:23:23;;;;;;;7.53;6.10;;;;;;;;;;4972980;28;20199;-71
2022/06/27 12:25:49;;;;;;;9.30;5.18;;;;;;;;;;4988563;28;20219;-72
2022/06/27 12:28:14;;;;;;;8.95;4.35;;;;;;;;;;4971570;28;20179;-72
2022/06/27 12:30:39;;;;;;;6.82;4.30;;;;;;;;;;4996279;28;20187;-72
2022/06/27 12:33:05;;;;;;;6.07;3.65;;;;;;;;;;5011066;28;20207;-72
2022/06/27 12:35:31;;;;;;;6.18;3.20;;;;;;;;;;5014222;28;20175;-72
2022/06/27 12:37:59;;;;;;;5.43;3.35;;;;;;;;;;5009656;28;20186;-72
2022/06/27 12:40:25;;;;;;;5.72;2.70;;;;;;;;;;5008534;28;20183;-71
2022/06/27 12:42:50;;;;;;;6.45;2.25;;;;;;;;;;5011697;28;20194;-72
2022/06/27 12:45:15;;;;;;;7.53;2.20;;;;;;;;;;5007125;28;20242;-72
2022/06/27 12:47:40;;;;;;;4.65;2.20;;;;;;;;;;5009309;28;20692;-72
2022/06/27 12:50:06;;;;;;;7.35;2.28;;;;;;;;;;5008837;28;20172;-72
2022/06/27 12:52:31;;;;;;;5.00;3.22;;;;;;;;;;5010638;28;20756;-72
2022/06/27 12:54:59;;;;;;;4.82;2.45;;;;;;;;;;5011655;28;20282;-73
2022/06/27 12:57:25;;;;;;;6.25;2.47;;;;;;;;;;5009883;28;20246;-72
2022/06/27 12:59:50;;;;;;;4.57;2.55;;;;;;;;;;5008118;28;20182;-72
2022/06/27 13:02:16;;;;;;;5.40;2.60;;;;;;;;;;5007883;28;20724;-72
2022/06/27 13:04:41;;;;;;;5.25;2.47;;;;;;;;;;5010466;28;20554;-72
2022/06/27 13:07:06;;;;;;;4.38;2.22;;;;;;;;;;5001926;28;20653;-71
2022/06/27 13:09:31;;;;;;;9.30;2.70;;;;;;;;;;4987214;28;20277;-72
2022/06/27 13:11:57;;;;;;;4.57;2.42;;;;;;;;;;4985178;28;20183;-72
2022/06/27 13:14:22;;;;;;;3.97;2.50;;;;;;;;;;4993933;28;20229;-72
2022/06/27 13:16:49;;;;;;;5.20;2.58;;;;;;;;;;4990092;28;20218;-72
2022/06/27 13:19:14;;;;;;;4.60;2.90;;;;;;;;;;4989902;28;20266;-72
2022/06/27 13:21:39;;;;;;;3.92;3.00;;;;;;;;;;4989343;28;20186;-72
2022/06/27 13:24:04;;;;;;;7.13;4.10;;;;;;;;;;4990015;28;20298;-72
2022/06/27 13:26:30;;;;;;;6.93;5.53;;;;;;;;;;4990983;28;20214;-72
2022/06/27 13:28:55;;;;;;;7.90;6.05;;;;;;;;;;4990561;28;20179;-71
2022/06/27 13:31:21;;;;;;;12.50;7.15;;;;;;;;;;4987087;28;20277;-72
2022/06/27 13:33:46;;;;;;;8.57;4.45;;;;;;;;;;4990233;28;20192;-71
2022/06/27 13:36:11;;;;;;;3.53;2.15;;;;;;;;;;4990840;28;20864;-71
2022/06/27 13:38:36;;;;;;;3.58;2.20;;;;;;;;;;5005280;28;20213;-71
2022/06/27 13:41:02;;;;;;;2.83;1.50;;;;;;;;;;4993758;28;20178;-71
2022/06/27 13:43:27;;;;;;;3.83;1.42;;;;;;;;;;4989796;28;20204;-71
2022/06/27 13:45:52;;;;;;;1.92;1.55;;;;;;;;;;4996138;28;20207;-70
2022/06/27 13:48:17;;;;;;;2.92;1.38;;;;;;;;;;4995837;28;20175;-73
2022/06/27 13:50:43;;;;;;;2.85;1.90;;;;;;;;;;4990377;28;20213;-70
2022/06/27 13:53:08;;;;;;;3.97;2.45;;;;;;;;;;4993117;28;20215;-71
2022/06/27 13:55:35;;;;;;;2.17;1.65;;;;;;;;;;4990538;28;20640;-72
2022/06/27 13:58:01;;;;;;;5.15;1.50;;;;;;;;;;4989705;28;22217;-73
2022/06/27 14:00:27;;;;;;;3.45;1.73;;;;;;;;;;4989312;28;20435;-73
2022/06/27 14:02:53;;;;;;;2.85;1.52;;;;;;;;;;4988226;28;20215;-72
2022/06/27 14:05:18;;;;;;;3.53;2.08;;;;;;;;;;4990111;28;20247;-72
2022/06/27 14:07:45;;;;;;;2.22;1.70;;;;;;;;;;5008631;28;20187;-72
2022/06/27 14:10:12;;;;;;;2.72;1.70;;;;;;;;;;5006255;28;20543;-72
2022/06/27 14:12:38;;;;;;;2.97;2.03;;;;;;;;;;5011525;28;20198;-71
2022/06/27 14:15:04;;;;;;;1.90;1.60;;;;;;;;;;5001974;28;20183;-71
2022/06/27 14:17:29;;;;;;;3.65;2.00;;;;;;;;;;5011185;28;20865;-72
2022/06/27 14:19:54;;;;;;;3.13;2.05;;;;;;;;;;5009955;28;20194;-70
2022/06/27 14:22:20;;;;;;;3.42;2.30;;;;;;;;;;4997492;28;21022;-72
2022/06/27 14:24:45;;;;;;;2.95;2.75;;;;;;;;;;4988019;28;21480;-72
2022/06/27 14:27:11;;;;;;;4.75;2.60;;;;;;;;;;4988458;28;22484;-71
2022/06/27 14:29:36;;;;;;;4.95;3.00;;;;;;;;;;4974844;28;20238;-71
2022/06/27 14:32:02;;;;;;;4.68;2.78;;;;;;;;;;5013223;28;20175;-71
2022/06/27 14:34:27;;;;;;;4.85;3.15;;;;;;;;;;5009998;28;20183;-71